createdAt,value
2017-12-23T04:31:17.238Z,17.77
2017-12-23T04:33:44.817Z,16.40
2017-12-23T04:36:12.393Z,15.73
2017-12-23T04:38:40.792Z,15.20
2017-12-23T04:41:08.370Z,16.65
2017-12-23T04:43:35.943Z,17.75
2017-12-23T04:46:03.548Z,15.25
2017-12-23T04:48:31.893Z,16.15
2017-12-23T04:50:59.473Z,16.12
2017-12-23T04:53:27.841Z,15.20
2017-12-23T04:55:55.422Z,15.48
2017-12-23T04:58:23.766Z,16.87
2017-12-23T05:00:51.369Z,15.25
2017-12-23T05:03:18.953Z,16.08
2017-12-23T05:05:46.525Z,15.32
2017-12-23T05:08:14.145Z,16.02
2017-12-23T05:10:41.716Z,15.02
2017-12-23T05:13:09.294Z,15.38
2017-12-23T05:15:36.945Z,14.50
2017-12-23T05:18:04.520Z,14.13
2017-12-23T05:20:32.102Z,13.70
2017-12-23T05:22:59.701Z,12.48
2017-12-23T05:25:27.284Z,12.23
2017-12-23T05:27:54.916Z,13.75
2017-12-23T05:30:22.485Z,13.02
2017-12-23T05:32:50.066Z,13.70
2017-12-23T05:35:17.730Z,12.50
2017-12-23T05:37:45.312Z,12.45
2017-12-23T05:40:12.890Z,14.10
2017-12-23T05:42:41.254Z,13.07
2017-12-23T05:45:09.601Z,12.32
2017-12-23T05:47:37.326Z,12.60
2017-12-23T05:50:05.214Z,11.82
2017-12-23T05:52:32.794Z,11.48
2017-12-23T05:55:00.404Z,11.35
2017-12-23T05:57:27.982Z,11.10
2017-12-23T05:59:55.564Z,12.20
2017-12-23T06:02:23.293Z,11.68
2017-12-23T06:04:50.871Z,9.98
2017-12-23T06:07:18.449Z,12.30
2017-12-23T06:09:46.058Z,10.52
2017-12-23T06:12:13.638Z,12.18
2017-12-23T06:14:41.209Z,11.85
2017-12-23T06:17:08.841Z,12.45
2017-12-23T06:19:36.422Z,11.50
2017-12-23T06:22:04.039Z,12.75
2017-12-23T06:24:32.400Z,12.18
2017-12-23T06:26:59.977Z,13.35
2017-12-23T06:29:28.321Z,12.73
2017-12-23T06:31:55.921Z,12.27
2017-12-23T06:34:23.496Z,11.43
2017-12-23T06:36:51.101Z,12.35
2017-12-23T06:39:18.685Z,12.32
2017-12-23T06:41:47.029Z,10.93
2017-12-23T06:44:14.658Z,10.70
2017-12-23T06:46:42.234Z,11.60
2017-12-23T06:49:09.813Z,11.95
2017-12-23T06:51:37.424Z,11.63
2017-12-23T06:54:05.003Z,12.25
2017-12-23T06:56:32.586Z,11.63
2017-12-23T06:59:00.217Z,11.90
2017-12-23T07:01:27.793Z,11.50
2017-12-23T07:03:55.368Z,10.40
2017-12-23T07:06:23.001Z,9.98
2017-12-23T07:08:50.632Z,9.95
2017-12-23T07:11:18.211Z,9.95
2017-12-23T07:13:45.816Z,9.70
2017-12-23T07:16:13.390Z,9.73
2017-12-23T07:18:41.733Z,10.63
2017-12-23T07:21:09.351Z,11.00
2017-12-23T07:23:36.936Z,8.88
2017-12-23T07:26:05.276Z,9.68
2017-12-23T07:28:32.869Z,9.30
2017-12-23T07:31:00.441Z,9.45
2017-12-23T07:33:28.018Z,10.20
2017-12-23T07:35:55.638Z,10.40
2017-12-23T07:38:23.208Z,9.50
2017-12-23T07:40:50.851Z,9.95
2017-12-23T07:43:18.460Z,9.32
2017-12-23T07:45:46.809Z,9.57
2017-12-23T07:48:15.152Z,9.77
2017-12-23T07:50:42.749Z,10.43
2017-12-23T07:53:10.330Z,10.32
2017-12-23T07:55:37.962Z,10.82
2017-12-23T07:58:06.305Z,9.38
2017-12-23T08:00:33.881Z,9.65
2017-12-23T08:03:01.485Z,9.40
2017-12-23T08:05:29.825Z,9.55
2017-12-23T08:07:57.397Z,9.93
2017-12-23T08:10:25.009Z,10.25
2017-12-23T08:12:52.605Z,9.57
2017-12-23T08:15:20.237Z,9.48
2017-12-23T08:17:47.817Z,11.55
2017-12-23T08:20:15.393Z,9.98
2017-12-23T08:22:42.997Z,10.10
2017-12-23T08:25:10.582Z,10.27
2017-12-23T08:27:38.162Z,10.15
2017-12-23T08:30:05.798Z,11.12
2017-12-23T08:32:33.389Z,10.70
2017-12-23T08:35:00.970Z,9.55
2017-12-23T08:37:28.602Z,11.00
2017-12-23T08:39:56.194Z,10.90
2017-12-23T08:42:24.545Z,11.70
2017-12-23T08:44:52.149Z,10.23
2017-12-23T08:47:19.724Z,10.45
2017-12-23T08:49:47.309Z,11.75
2017-12-23T08:52:14.915Z,11.25
2017-12-23T08:54:43.256Z,11.18
2017-12-23T08:57:10.826Z,9.82
2017-12-23T08:59:38.441Z,10.10
2017-12-23T09:02:06.021Z,10.18
2017-12-23T09:04:33.593Z,10.95
2017-12-23T09:07:01.197Z,10.32
2017-12-23T09:09:28.773Z,10.68
2017-12-23T09:11:56.345Z,10.73
2017-12-23T09:14:24.007Z,9.95
2017-12-23T09:16:51.581Z,9.77
2017-12-23T09:19:19.152Z,9.80
2017-12-23T09:21:46.769Z,9.77
2017-12-23T09:24:14.344Z,11.00
2017-12-23T09:26:41.917Z,9.75
2017-12-23T09:29:09.529Z,10.23
2017-12-23T09:31:37.113Z,11.90
2017-12-23T09:34:04.685Z,10.63
2017-12-23T09:36:32.281Z,10.13
2017-12-23T09:38:59.858Z,11.05
2017-12-23T09:41:28.217Z,9.63
2017-12-23T09:43:55.789Z,8.65
2017-12-23T09:46:24.137Z,10.52
2017-12-23T09:48:51.737Z,10.10
2017-12-23T09:51:19.318Z,11.23
2017-12-23T09:53:46.899Z,9.52
2017-12-23T09:56:14.533Z,9.25
2017-12-23T09:58:42.105Z,9.30
2017-12-23T10:01:09.673Z,9.70
2017-12-23T10:03:37.287Z,8.95
2017-12-23T10:06:04.861Z,9.32
2017-12-23T10:08:32.433Z,9.82
2017-12-23T10:11:00.054Z,10.60
2017-12-23T10:13:28.402Z,10.20
2017-12-23T10:15:55.986Z,10.13
2017-12-23T10:18:24.348Z,9.82
2017-12-23T10:20:51.917Z,9.55
2017-12-23T10:23:20.309Z,9.63
2017-12-23T10:25:48.657Z,9.68
2017-12-23T10:28:16.229Z,9.80
2017-12-23T10:30:44.620Z,9.95
2017-12-23T10:33:12.966Z,10.65
2017-12-23T10:35:40.551Z,11.07
2017-12-23T10:38:08.929Z,9.68
2017-12-23T10:40:37.269Z,9.32
2017-12-23T10:43:04.841Z,9.25
2017-12-23T10:45:32.441Z,10.35
2017-12-23T10:48:00.033Z,8.70
2017-12-23T10:50:27.670Z,8.50
2017-12-23T10:52:55.247Z,9.07
2017-12-23T10:55:22.821Z,10.23
2017-12-23T10:57:50.417Z,8.98
2017-12-23T11:00:18.756Z,9.63
2017-12-23T11:02:46.333Z,10.05
2017-12-23T11:05:13.933Z,8.70
2017-12-23T11:07:41.507Z,8.52
2017-12-23T11:10:09.113Z,9.23
2017-12-23T11:12:36.688Z,9.50
2017-12-23T11:15:05.028Z,8.90
2017-12-23T11:17:32.633Z,10.82
2017-12-23T11:20:00.205Z,8.00
2017-12-23T11:22:27.942Z,8.45
2017-12-23T11:24:55.543Z,8.40
2017-12-23T11:27:23.123Z,8.48
2017-12-23T11:29:50.698Z,9.02
2017-12-23T11:32:18.353Z,9.48
2017-12-23T11:34:45.958Z,8.40
2017-12-23T11:37:13.529Z,8.30
2017-12-23T11:39:41.221Z,9.32
2017-12-23T11:42:08.797Z,9.15
2017-12-23T11:44:36.385Z,8.00
2017-12-23T11:47:04.021Z,8.82
2017-12-23T11:49:32.386Z,8.70
2017-12-23T11:51:59.973Z,8.10
2017-12-23T11:54:28.338Z,8.20
2017-12-23T11:56:56.690Z,8.02
2017-12-23T11:59:24.266Z,8.30
2017-12-23T12:01:51.986Z,7.90
2017-12-23T12:04:19.563Z,9.10
2017-12-23T12:06:47.147Z,9.10
2017-12-23T12:09:14.769Z,8.27
2017-12-23T12:11:42.342Z,7.75
2017-12-23T12:14:10.006Z,8.68
2017-12-23T12:16:37.621Z,8.73
2017-12-23T12:19:05.205Z,9.10
2017-12-23T12:21:32.781Z,7.62
2017-12-23T12:24:00.398Z,8.98
2017-12-23T12:26:27.969Z,7.72
2017-12-23T12:28:55.545Z,8.23
2017-12-23T12:31:23.178Z,7.70
2017-12-23T12:33:50.749Z,7.12
2017-12-23T12:36:18.357Z,8.18
2017-12-23T12:38:46.737Z,7.05
2017-12-23T12:41:15.078Z,6.55
2017-12-23T12:43:42.653Z,9.10
2017-12-23T12:46:10.286Z,9.73
2017-12-23T12:48:37.873Z,7.85
2017-12-23T12:51:05.450Z,7.80
2017-12-23T12:53:33.074Z,7.55
2017-12-23T12:56:01.422Z,9.05
2017-12-23T12:58:28.995Z,6.40
2017-12-23T13:00:56.654Z,10.57
2017-12-23T13:03:24.228Z,6.03
2017-12-23T13:05:51.809Z,6.93
2017-12-23T13:08:19.422Z,6.25
2017-12-23T13:10:47.001Z,6.18
2017-12-23T13:13:14.578Z,6.53
2017-12-23T13:15:42.193Z,5.65
2017-12-23T13:18:09.784Z,5.95
2017-12-23T13:20:37.353Z,5.65
2017-12-23T13:23:04.954Z,5.57
2017-12-23T13:25:32.525Z,5.25
2017-12-23T13:28:00.106Z,4.90
2017-12-23T13:30:27.728Z,5.43
2017-12-23T13:32:55.298Z,5.30
2017-12-23T13:35:22.869Z,4.43
2017-12-23T13:37:50.493Z,6.18
2017-12-23T13:40:18.830Z,4.78
2017-12-23T13:42:46.412Z,6.07
2017-12-23T13:45:14.889Z,5.35
2017-12-23T13:47:42.461Z,5.68
2017-12-23T13:50:10.796Z,6.25
2017-12-23T13:52:38.406Z,6.45
2017-12-23T13:55:06.749Z,5.90
2017-12-23T13:57:34.342Z,6.18
2017-12-23T14:00:02.682Z,5.57
2017-12-23T14:02:30.263Z,6.82
2017-12-23T14:04:58.628Z,5.85
2017-12-23T14:07:26.197Z,6.03
2017-12-23T14:09:53.778Z,5.82
2017-12-23T14:12:21.391Z,6.53
2017-12-23T14:14:48.970Z,5.05
2017-12-23T14:17:17.319Z,5.53
2017-12-23T14:19:44.913Z,5.03
2017-12-23T14:22:13.259Z,5.10
2017-12-23T14:24:40.835Z,4.82
2017-12-23T14:27:08.457Z,5.80
2017-12-23T14:29:36.026Z,6.35
2017-12-23T14:32:03.597Z,4.93
2017-12-23T14:34:31.209Z,5.47
2017-12-23T14:36:58.781Z,5.50
2017-12-23T14:39:26.350Z,5.43
2017-12-23T14:41:53.946Z,4.57
2017-12-23T14:44:21.578Z,5.15
2017-12-23T14:46:49.117Z,4.32
2017-12-23T14:49:16.708Z,5.05
2017-12-23T14:51:44.286Z,4.90
2017-12-23T14:54:11.903Z,4.90
2017-12-23T14:56:39.477Z,4.87
2017-12-23T14:59:07.050Z,4.40
2017-12-23T15:01:34.641Z,4.35
2017-12-23T15:04:02.981Z,4.68
2017-12-23T15:06:30.597Z,4.05
2017-12-23T15:08:58.166Z,4.47
2017-12-23T15:11:25.744Z,4.10
2017-12-23T15:13:53.392Z,4.55
2017-12-23T15:16:21.053Z,4.72
2017-12-23T15:18:48.625Z,4.37
2017-12-23T15:21:16.249Z,4.85
2017-12-23T15:23:43.822Z,4.53
2017-12-23T15:26:11.409Z,4.55
2017-12-23T15:28:39.023Z,6.03
2017-12-23T15:31:06.598Z,5.10
2017-12-23T15:33:34.170Z,5.53
2017-12-23T15:36:01.802Z,6.05
2017-12-23T15:38:29.382Z,5.78
2017-12-23T15:40:57.044Z,5.60
2017-12-23T15:43:24.638Z,6.53
2017-12-23T15:45:52.213Z,5.47
2017-12-23T15:48:20.601Z,5.30
2017-12-23T15:50:48.936Z,5.53
2017-12-23T15:53:16.513Z,6.20
2017-12-23T15:55:44.155Z,5.80
2017-12-23T15:58:12.502Z,5.57
2017-12-23T16:00:40.073Z,5.90
2017-12-23T16:03:07.685Z,6.35
2017-12-23T16:05:36.024Z,6.30
2017-12-23T16:08:03.593Z,6.43
2017-12-23T16:10:31.204Z,5.18
2017-12-23T16:12:58.779Z,6.00
2017-12-23T16:15:26.352Z,5.68
2017-12-23T16:17:53.953Z,5.80
2017-12-23T16:20:22.293Z,4.97
2017-12-23T16:22:49.869Z,5.45
2017-12-23T16:25:17.499Z,5.70
2017-12-23T16:27:45.081Z,5.10
2017-12-23T16:30:12.653Z,5.22
2017-12-23T16:32:40.259Z,5.25
2017-12-23T16:35:07.849Z,5.50
2017-12-23T16:37:35.428Z,6.30
2017-12-23T16:40:03.060Z,5.85
2017-12-23T16:42:30.692Z,5.72
2017-12-23T16:44:58.263Z,4.37
2017-12-23T16:47:25.893Z,5.20
2017-12-23T16:49:53.473Z,5.15
2017-12-23T16:52:21.085Z,6.10
2017-12-23T16:54:48.730Z,5.22
2017-12-23T16:57:16.302Z,5.28
2017-12-23T16:59:43.961Z,5.75
2017-12-23T17:02:11.529Z,5.00
2017-12-23T17:04:39.877Z,5.65
2017-12-23T17:07:08.274Z,6.60
2017-12-23T17:09:35.845Z,5.57
2017-12-23T17:12:04.190Z,5.85
2017-12-23T17:14:31.805Z,5.50
2017-12-23T17:16:59.617Z,5.55
2017-12-23T17:19:27.213Z,6.35
2017-12-23T17:21:54.838Z,5.75
2017-12-23T17:24:22.405Z,5.95
2017-12-23T17:26:49.979Z,6.37
2017-12-23T17:29:30.398Z,5.90
2017-12-23T17:31:58.154Z,7.62
2017-12-23T17:34:25.813Z,7.25
2017-12-23T17:36:53.578Z,6.62
2017-12-23T17:39:21.296Z,6.55
2017-12-23T17:41:49.642Z,7.40
2017-12-23T17:44:17.545Z,7.55
2017-12-23T17:46:45.205Z,7.53
2017-12-23T17:49:13.109Z,7.50
2017-12-23T17:51:40.696Z,6.85
2017-12-23T17:54:08.674Z,7.87
2017-12-23T17:56:37.049Z,7.43
2017-12-23T17:59:04.791Z,6.68
2017-12-23T18:01:33.157Z,6.82
2017-12-23T18:04:00.809Z,7.57
2017-12-23T18:06:29.206Z,7.45
2017-12-23T18:08:56.845Z,7.37
2017-12-23T18:11:24.521Z,7.78
2017-12-23T18:13:53.225Z,8.00
2017-12-23T18:16:20.904Z,7.28
2017-12-23T18:18:49.295Z,7.80
2017-12-23T18:21:16.875Z,7.35
2017-12-23T18:23:44.454Z,7.55
2017-12-23T18:26:12.084Z,8.75
2017-12-23T18:28:39.664Z,7.78
2017-12-23T18:31:07.239Z,8.07
2017-12-23T18:33:35.613Z,7.25
2017-12-23T18:36:03.190Z,8.60
2017-12-23T18:38:30.774Z,8.15
2017-12-23T18:40:59.181Z,7.25
2017-12-23T18:43:26.757Z,8.77
2017-12-23T18:45:54.328Z,7.65
2017-12-23T18:48:21.946Z,7.70
2017-12-23T18:50:49.527Z,7.57
2017-12-23T18:53:17.106Z,8.02
2017-12-23T18:55:44.729Z,7.87
2017-12-23T18:58:12.307Z,8.40
2017-12-23T19:00:39.886Z,8.27
2017-12-23T19:03:07.526Z,7.75
2017-12-23T19:05:35.104Z,8.48
2017-12-23T19:08:02.677Z,7.70
2017-12-23T19:10:30.277Z,8.00
2017-12-23T19:12:57.853Z,8.00
2017-12-23T19:15:25.435Z,8.77
2017-12-23T19:17:53.057Z,7.65
2017-12-23T19:20:20.629Z,8.10
2017-12-23T19:22:48.207Z,8.02
2017-12-23T19:25:15.815Z,8.00
2017-12-23T19:27:44.154Z,7.82
2017-12-23T19:30:12.497Z,8.23
2017-12-23T19:32:40.093Z,7.78
2017-12-23T19:35:07.666Z,7.53
2017-12-23T19:37:35.365Z,8.90
2017-12-23T19:40:02.942Z,7.75
2017-12-23T19:42:30.523Z,8.20
2017-12-23T19:44:58.145Z,7.87
2017-12-23T19:47:25.721Z,8.13
2017-12-23T19:49:53.298Z,7.78
2017-12-23T19:52:20.913Z,6.93
2017-12-23T19:54:48.519Z,7.75
2017-12-23T19:57:16.100Z,7.12
2017-12-23T19:59:43.739Z,7.90
2017-12-23T20:02:11.337Z,7.82
2017-12-23T20:04:39.674Z,8.15
2017-12-23T20:07:07.279Z,8.20
2017-12-23T20:09:34.862Z,7.60
2017-12-23T20:12:02.474Z,8.07
2017-12-23T20:14:30.045Z,7.03
2017-12-23T20:16:58.399Z,6.97
2017-12-23T20:19:26.017Z,8.75
2017-12-23T20:21:53.585Z,7.93
2017-12-23T20:24:21.162Z,7.53
2017-12-23T20:26:48.783Z,7.40
2017-12-23T20:29:16.361Z,7.53
2017-12-23T20:31:43.937Z,7.20
2017-12-23T20:34:11.588Z,7.53
2017-12-23T20:36:39.165Z,6.93
2017-12-23T20:39:06.742Z,6.95
2017-12-23T20:41:34.342Z,7.25
2017-12-23T20:44:01.917Z,6.87
2017-12-23T20:46:29.549Z,6.85
2017-12-23T20:48:57.125Z,7.37
2017-12-23T20:51:24.703Z,7.70
2017-12-23T20:53:52.325Z,7.90
2017-12-23T20:56:19.938Z,7.50
2017-12-23T20:58:47.528Z,7.25
2017-12-23T21:01:15.177Z,6.75
2017-12-23T21:03:42.787Z,7.05
2017-12-23T21:06:10.366Z,8.13
2017-12-23T21:08:37.978Z,7.07
2017-12-23T21:11:05.557Z,7.22
2017-12-23T21:13:33.134Z,7.97
2017-12-23T21:16:00.770Z,6.75
2017-12-23T21:18:28.753Z,7.22
2017-12-23T21:20:56.329Z,7.60
2017-12-23T21:23:24.461Z,8.07
2017-12-23T21:25:52.050Z,6.40
2017-12-23T21:28:19.628Z,5.90
2017-12-23T21:30:47.229Z,6.05
2017-12-23T21:33:14.802Z,5.43
2017-12-23T21:35:42.441Z,7.20
2017-12-23T21:38:10.023Z,6.15
2017-12-23T21:40:37.605Z,5.97
2017-12-23T21:43:05.325Z,6.95
2017-12-23T21:45:32.905Z,6.55
2017-12-23T21:48:00.486Z,7.00
2017-12-23T21:50:28.110Z,6.55
2017-12-23T21:52:55.741Z,6.32
2017-12-23T21:55:24.086Z,5.85
2017-12-23T21:57:51.685Z,6.72
2017-12-23T22:00:20.026Z,5.57
2017-12-23T22:02:47.599Z,5.28
2017-12-23T22:05:15.222Z,5.50
2017-12-23T22:07:42.797Z,5.72
2017-12-23T22:10:10.369Z,5.15
2017-12-23T22:12:37.978Z,6.40
2017-12-23T22:15:05.549Z,4.78
2017-12-23T22:17:33.165Z,4.82
2017-12-23T22:20:01.510Z,5.00
2017-12-23T22:22:29.085Z,4.97
2017-12-23T22:24:56.703Z,5.62
2017-12-23T22:27:24.273Z,5.30
2017-12-23T22:29:51.850Z,4.57
2017-12-23T22:32:19.475Z,5.32
2017-12-23T22:34:47.046Z,4.62
2017-12-23T22:37:14.613Z,4.65
2017-12-23T22:39:42.328Z,5.47
2017-12-23T22:42:10.669Z,4.65
2017-12-23T22:44:38.252Z,5.55
2017-12-23T22:47:06.665Z,5.30
2017-12-23T22:49:34.242Z,4.80
2017-12-23T22:52:01.850Z,4.65
2017-12-23T22:54:30.210Z,4.50
2017-12-23T22:56:57.785Z,4.22
2017-12-23T22:59:26.702Z,4.78
2017-12-23T23:01:54.323Z,4.97
2017-12-23T23:04:21.902Z,4.28
2017-12-23T23:06:50.277Z,4.70
2017-12-23T23:09:18.614Z,4.62
2017-12-23T23:11:46.189Z,4.68
2017-12-23T23:14:13.801Z,4.75
2017-12-23T23:16:41.371Z,4.28
2017-12-23T23:19:08.949Z,5.15
2017-12-23T23:21:36.554Z,4.53
2017-12-23T23:24:04.130Z,4.40
2017-12-23T23:26:31.702Z,5.53
2017-12-23T23:28:59.297Z,5.55
